WetterOnline ( https://www.wetteronline.de )

Wetter aktuell Bad Reichenhall

Aktuelles Wetter: Salzburg Flughafen (450m)

6-stündlich | Neueste Meldungen
Ortszeit Temperatur Wetter
So, 12.07. 14:00 20.1° C leicht bewölkt
So, 12.07. 8:00 13.8° C leicht bewölkt
So, 12.07. 2:00 11.1° C fast wolkenlos
Sa, 11.07. 20:00 17.0° C leicht bewölkt
Sa, 11.07. 14:00 16.6° C leichter Regen
Sa, 11.07. 8:00 15.2° C Regen
Sa, 11.07. 2:00 17.8° C bewölkt
Fr, 10.07. 20:00 18.2° C leichte Schauer
Ortszeit Temperatur Wetter
So, 12.07. 16:20 21° C leicht bewölkt
So, 12.07. 16:00 20.6° C leicht bewölkt
So, 12.07. 15:50 21° C leicht bewölkt
So, 12.07. 15:20 21° C leicht bewölkt
So, 12.07. 15:00 20.2° C leicht bewölkt
So, 12.07. 14:50 20° C leicht bewölkt
So, 12.07. 14:20 21° C leicht bewölkt
So, 12.07. 14:00 20.1° C leicht bewölkt
So, 12.07. 13:20 20° C leicht bewölkt
So, 12.07. 13:00 18.8° C leicht bewölkt
Ortszeit Relative Feuchte Sichtweite
So, 12.07. 14:00 42% 55 km
So, 12.07. 8:00 88% 65 km
So, 12.07. 2:00 99% 11 km
Sa, 11.07. 20:00 80% 55 km
Sa, 11.07. 14:00 92% 20 km
Sa, 11.07. 8:00 96% 6 km
Sa, 11.07. 2:00 98% 25 km
Fr, 10.07. 20:00 89% 45 km
Ortszeit Relative Feuchte Sichtweite
So, 12.07. 16:20 38% >10 km
So, 12.07. 16:00 41% 60 km
So, 12.07. 15:50 40% >10 km
So, 12.07. 15:20 43% >10 km
So, 12.07. 15:00 44% 55 km
So, 12.07. 14:50 46% >10 km
So, 12.07. 14:20 40% >10 km
So, 12.07. 14:00 42% 55 km
So, 12.07. 13:20 46% >10 km
So, 12.07. 13:00 51% 65 km
Ortszeit Niederschlagsmenge Niederschlagsart
So, 12.07. 14:00 keine Meldung -
So, 12.07. 8:00 9 l/m2 in 12 Std. -
So, 12.07. 2:00 9 l/m2 in 6 Std. -
Sa, 11.07. 20:00 22 l/m2 in 12 Std. -
Sa, 11.07. 14:00 5 l/m2 in 6 Std. -
Sa, 11.07. 8:00 21 l/m2 in 12 Std. -
Sa, 11.07. 2:00 4 l/m2 in 6 Std. -
Fr, 10.07. 20:00 20 l/m2 in 12 Std. -
Ortszeit Niederschlagsmenge Niederschlagsart
So, 12.07. 16:20 keine Meldung -
So, 12.07. 16:00 0.0 l/m2 in 1 Std. -
So, 12.07. 15:50 keine Meldung -
So, 12.07. 15:20 keine Meldung -
So, 12.07. 15:00 0.0 l/m2 in 1 Std. -
So, 12.07. 14:50 keine Meldung -
So, 12.07. 14:20 keine Meldung -
So, 12.07. 14:00 0.0 l/m2 in 1 Std. -
So, 12.07. 13:20 keine Meldung -
So, 12.07. 13:00 0.0 l/m2 in 1 Std. -
Ortszeit Stärke Spitze Richtung
km/h Bft. km/h Grad Sektor
So, 12.07. 14:00 14 3 - 330° NW
So, 12.07. 8:00 7 2 - - -
So, 12.07. 2:00 11 2 - - -
Sa, 11.07. 20:00 4 1 - - -
Sa, 11.07. 14:00 7 2 - - -
Sa, 11.07. 8:00 4 1 - - -
Sa, 11.07. 2:00 4 1 - - -
Fr, 10.07. 20:00 18 3 86 160° S
Ortszeit Stärke Spitze Richtung
km/h Bft. km/h Grad Sektor
So, 12.07. 16:20 11 2 - 20° N
So, 12.07. 16:00 14 3 - 20° N
So, 12.07. 15:50 15 3 - 20° N
So, 12.07. 15:20 13 3 - 20° N
So, 12.07. 15:00 11 2 - 30° NO
So, 12.07. 14:50 11 2 - 30° NO
So, 12.07. 14:20 9 2 - 10° N
So, 12.07. 14:00 14 3 - 330° NW
So, 12.07. 13:20 13 3 - 20° N
So, 12.07. 13:00 11 2 - 60° NO
Ortszeit Untergrenze Bedeckung Gattung
total tief tief mittel hoch
So, 12.07. 14:00 1500 m 2/8 1/8 Cu - -
So, 12.07. 8:00 150 m 3/8 3/8 St Ac -
So, 12.07. 2:00 30 m 1/8 1/8 - - -
Sa, 11.07. 20:00 360 m 6/8 1/8 St Ac -
Sa, 11.07. 14:00 240 m 8/8 6/8 St - -
Sa, 11.07. 8:00 90 m 8/8 6/8 St - -
Sa, 11.07. 2:00 120 m 8/8 5/8 - - -
Fr, 10.07. 20:00 240 m 8/8 1/8 Cu - -
Ortszeit Bedeckungsgrad in Achtel und Wolkenuntergrenze
So, 12.07. 16:20 1-2(1800m)
So, 12.07. 16:00 1(1800m)
So, 12.07. 15:50 1-2(1800m)
So, 12.07. 15:20 1-2(1500m)
So, 12.07. 15:00 1(1500m)
So, 12.07. 14:50 1-2(1500m)
So, 12.07. 14:20 1-2(1500m)
So, 12.07. 14:00 1(1500m)
So, 12.07. 13:20 1-2(1500m)
So, 12.07. 13:00 1(1500m)
Ortszeit Luftdruck NN (hPa) Tendenz (hPa in 3 Std.)
So, 12.07. 14:00 1025 - 0,1
So, 12.07. 8:00 1026 + 1,0
So, 12.07. 2:00 1025 - 0,1
Sa, 11.07. 20:00 1022 + 0,5
Sa, 11.07. 14:00 1021 + 0,7
Sa, 11.07. 8:00 1020 + 2,5
Sa, 11.07. 2:00 1017 + 0,3
Fr, 10.07. 20:00 1014 + 3,5
Ortszeit Luftdruck NN (hPa) Tendenz (hPa in 3 Std.)
So, 12.07. 16:20 1025 keine Meldung
So, 12.07. 16:00 1024 - 0,3
So, 12.07. 15:50 1025 keine Meldung
So, 12.07. 15:20 1025 keine Meldung
So, 12.07. 15:00 1024 - 0,2
So, 12.07. 14:50 1025 keine Meldung
So, 12.07. 14:20 1025 keine Meldung
So, 12.07. 14:00 1025 - 0,1
So, 12.07. 13:20 1026 keine Meldung
So, 12.07. 13:00 1025 - 0,1
Ortszeit Schneehöhe (cm)
So, 12.07. 14:00 -
So, 12.07. 8:00 -
So, 12.07. 2:00 -
Sa, 11.07. 20:00 -
Sa, 11.07. 14:00 -
Sa, 11.07. 8:00 -
Sa, 11.07. 2:00 -
Fr, 10.07. 20:00 -
Ortszeit Schneehöhe (cm)
So, 12.07. 16:20 -
So, 12.07. 16:00 -
So, 12.07. 15:50 -
So, 12.07. 15:20 -
So, 12.07. 15:00 -
So, 12.07. 14:50 -
So, 12.07. 14:20 -
So, 12.07. 14:00 -
So, 12.07. 13:20 -
So, 12.07. 13:00 -
Link zu dieser Seite / Seite empfehlen

Das Wetter in ...